createdAt,value
2019-05-30T00:02:47.206Z,5.80
2019-05-30T00:05:50.910Z,3.63
2019-05-30T00:08:54.620Z,3.23
2019-05-30T00:11:58.698Z,2.73
2019-05-30T00:15:05.866Z,4.10
2019-05-30T00:18:08.753Z,5.30
2019-05-30T00:21:12.460Z,3.83
2019-05-30T00:24:16.150Z,5.33
2019-05-30T00:27:20.172Z,5.07
2019-05-30T00:30:24.971Z,3.30
2019-05-30T00:33:29.383Z,4.83
2019-05-30T00:36:33.384Z,4.00
2019-05-30T00:39:37.112Z,2.77
2019-05-30T00:42:40.786Z,5.10
2019-05-30T00:45:44.479Z,4.37
2019-05-30T00:48:48.186Z,3.80
2019-05-30T00:51:51.906Z,4.27
2019-05-30T00:54:56.461Z,3.80
2019-05-30T00:58:00.620Z,2.77
2019-05-30T01:01:05.164Z,5.23
2019-05-30T01:04:09.697Z,4.53
2019-05-30T01:07:14.045Z,4.53
2019-05-30T01:10:17.747Z,2.33
2019-05-30T01:13:21.536Z,3.23
2019-05-30T01:16:25.249Z,4.93
2019-05-30T01:19:28.986Z,1.60
2019-05-30T01:22:32.775Z,5.77
2019-05-30T01:25:36.880Z,3.23
2019-05-30T01:28:40.987Z,5.37
2019-05-30T01:31:45.022Z,2.87
2019-05-30T01:34:49.063Z,2.53
2019-05-30T01:37:52.770Z,3.77
2019-05-30T01:40:57.623Z,3.47
2019-05-30T01:44:01.957Z,2.47
2019-05-30T01:47:06.380Z,5.43
2019-05-30T01:50:10.960Z,5.03
2019-05-30T01:53:14.639Z,4.60
2019-05-30T01:56:18.641Z,3.13
2019-05-30T01:59:22.348Z,2.70
2019-05-30T02:02:26.038Z,4.07
2019-05-30T02:05:29.742Z,4.33
2019-05-30T02:08:33.438Z,3.43
2019-05-30T02:11:37.460Z,4.60
2019-05-30T02:14:41.533Z,6.37
2019-05-30T02:17:45.535Z,4.70
2019-05-30T02:20:49.248Z,2.87
2019-05-30T02:23:53.046Z,3.53
2019-05-30T02:26:57.039Z,5.87
2019-05-30T02:30:03.262Z,4.60
2019-05-30T02:33:07.347Z,3.23
2019-05-30T02:36:12.620Z,2.17
2019-05-30T02:39:16.894Z,4.00
2019-05-30T02:42:21.026Z,4.23
2019-05-30T02:45:25.007Z,4.07
2019-05-30T02:48:28.952Z,3.87
2019-05-30T02:51:32.662Z,5.00
2019-05-30T02:54:36.935Z,3.87
2019-05-30T02:57:40.725Z,4.27
2019-05-30T03:00:44.466Z,4.47
2019-05-30T03:03:48.154Z,2.97
2019-05-30T03:06:51.992Z,3.63
2019-05-30T03:09:55.842Z,4.17
2019-05-30T03:12:59.616Z,2.83
2019-05-30T03:16:04.583Z,3.53
2019-05-30T03:19:11.049Z,4.03
2019-05-30T03:22:14.833Z,4.20
2019-05-30T03:25:19.016Z,6.50
2019-05-30T03:28:23.065Z,7.97
2019-05-30T03:31:30.317Z,2.77
2019-05-30T03:34:34.378Z,3.90
2019-05-30T03:37:38.114Z,3.40
2019-05-30T03:40:42.731Z,1.67
2019-05-30T03:43:46.675Z,4.57
2019-05-30T03:46:53.892Z,3.13
2019-05-30T03:50:00.402Z,3.00
2019-05-30T03:53:04.777Z,4.43
2019-05-30T03:56:14.144Z,5.67
2019-05-30T03:59:28.220Z,4.53
2019-05-30T04:02:56.295Z,5.27
2019-05-30T04:05:51.808Z,4.33
2019-05-30T04:08:59.813Z,2.40
2019-05-30T04:12:20.002Z,3.17
2019-05-30T04:15:31.522Z,6.03
2019-05-30T04:18:35.278Z,4.20
2019-05-30T04:21:39.220Z,3.27
2019-05-30T04:24:42.915Z,2.70
2019-05-30T04:27:47.162Z,3.07
2019-05-30T04:30:51.356Z,2.27
2019-05-30T04:33:55.334Z,5.90
2019-05-30T04:36:59.068Z,6.30
2019-05-30T04:40:03.015Z,4.10
2019-05-30T04:43:07.017Z,2.87
2019-05-30T04:46:12.185Z,5.30
2019-05-30T04:49:16.920Z,3.53
2019-05-30T04:52:24.745Z,4.07
2019-05-30T04:55:27.376Z,4.00
2019-05-30T04:58:31.674Z,5.13
2019-05-30T05:01:35.570Z,3.27
2019-05-30T05:04:39.582Z,2.43
2019-05-30T05:07:43.308Z,2.07
2019-05-30T05:10:47.013Z,4.20
2019-05-30T05:13:50.758Z,2.33
2019-05-30T05:16:54.746Z,2.53
2019-05-30T05:19:58.453Z,3.87
2019-05-30T05:23:02.177Z,7.00
2019-05-30T05:26:05.949Z,3.37
2019-05-30T05:29:09.689Z,3.57
2019-05-30T05:32:14.072Z,2.87
2019-05-30T05:35:18.720Z,3.73
2019-05-30T05:38:22.512Z,3.97
2019-05-30T05:41:26.278Z,3.40
2019-05-30T05:44:30.261Z,5.93
2019-05-30T05:47:34.541Z,4.60
2019-05-30T05:50:38.568Z,3.07
2019-05-30T05:53:42.860Z,3.50
2019-05-30T05:56:46.817Z,4.40
2019-05-30T05:59:50.536Z,3.47
2019-05-30T06:02:54.233Z,2.47
2019-05-30T06:05:57.942Z,4.10
2019-05-30T06:09:01.644Z,3.13
2019-05-30T06:12:05.598Z,3.30
2019-05-30T06:15:09.408Z,4.37
2019-05-30T06:18:13.104Z,3.53
2019-05-30T06:21:17.269Z,2.80
2019-05-30T06:24:21.598Z,3.93
2019-05-30T06:27:26.139Z,2.53
2019-05-30T06:30:29.895Z,7.53
2019-05-30T06:33:33.953Z,4.67
2019-05-30T06:36:38.070Z,4.93
2019-05-30T06:39:42.085Z,5.03
2019-05-30T06:42:45.814Z,8.07
2019-05-30T06:45:49.889Z,6.60
2019-05-30T06:48:53.592Z,7.53
2019-05-30T06:51:57.314Z,5.93
2019-05-30T06:55:01.340Z,7.03
2019-05-30T06:58:05.451Z,12.80
2019-05-30T07:01:09.179Z,9.00
2019-05-30T07:04:13.381Z,7.07
2019-05-30T07:07:17.843Z,8.67
2019-05-30T07:10:22.715Z,7.60
2019-05-30T07:13:27.214Z,3.60
2019-05-30T07:16:31.540Z,4.90
2019-05-30T07:19:37.741Z,5.87
2019-05-30T07:22:40.770Z,8.03
2019-05-30T07:25:44.781Z,3.20
2019-05-30T07:28:48.759Z,4.33
2019-05-30T07:31:52.731Z,4.67
2019-05-30T07:35:06.199Z,4.90
2019-05-30T07:38:02.260Z,4.57
2019-05-30T07:41:06.121Z,4.80
2019-05-30T07:44:09.842Z,6.43
2019-05-30T07:47:13.564Z,5.13
2019-05-30T07:50:17.996Z,7.97
2019-05-30T07:53:21.962Z,4.53
2019-05-30T07:56:26.923Z,4.27
2019-05-30T07:59:30.735Z,7.40
2019-05-30T08:02:35.810Z,7.27
2019-05-30T08:05:39.791Z,7.43
2019-05-30T08:08:43.541Z,6.67
2019-05-30T08:11:47.620Z,7.60
2019-05-30T08:14:51.664Z,5.97
2019-05-30T08:17:55.706Z,3.57
2019-05-30T08:20:59.750Z,4.33
2019-05-30T08:24:03.845Z,4.87
2019-05-30T08:27:07.583Z,2.87
2019-05-30T08:30:13.253Z,5.27
2019-05-30T08:33:17.366Z,5.50
2019-05-30T08:36:21.364Z,7.63
2019-05-30T08:39:25.385Z,5.30
2019-05-30T08:42:29.609Z,5.73
2019-05-30T08:45:33.869Z,4.33
2019-05-30T08:48:38.325Z,5.77
2019-05-30T08:51:42.088Z,4.10
2019-05-30T08:54:45.832Z,3.60
2019-05-30T08:57:50.864Z,4.87
2019-05-30T09:00:54.586Z,4.97
2019-05-30T09:03:58.381Z,3.60
2019-05-30T09:07:02.738Z,4.00
2019-05-30T09:10:06.637Z,8.53
2019-05-30T09:13:10.381Z,4.73
2019-05-30T09:16:14.344Z,5.13
2019-05-30T09:19:18.115Z,5.90
2019-05-30T09:22:22.209Z,8.17
2019-05-30T09:25:26.615Z,4.83
2019-05-30T09:28:30.353Z,4.13
2019-05-30T09:31:34.060Z,11.40
2019-05-30T09:34:38.344Z,5.50
2019-05-30T09:37:44.154Z,6.00
2019-05-30T09:40:49.668Z,5.87
2019-05-30T09:43:53.344Z,5.77
2019-05-30T09:46:57.331Z,5.67
2019-05-30T09:50:03.819Z,4.17
2019-05-30T09:53:06.506Z,6.60
2019-05-30T09:56:10.460Z,4.07
2019-05-30T09:59:14.169Z,6.07
2019-05-30T10:02:17.977Z,3.63
2019-05-30T10:05:24.437Z,5.40
2019-05-30T10:08:27.291Z,5.53
2019-05-30T10:11:31.546Z,6.80
2019-05-30T10:14:35.752Z,5.87
2019-05-30T10:17:39.463Z,5.87
2019-05-30T10:20:44.442Z,9.77
2019-05-30T10:23:49.410Z,7.40
2019-05-30T10:26:53.273Z,8.00
2019-05-30T10:29:57.542Z,4.50
2019-05-30T10:33:01.674Z,7.00
2019-05-30T10:36:06.091Z,6.90
2019-05-30T10:39:09.903Z,3.97
2019-05-30T10:42:13.883Z,8.53
2019-05-30T10:45:19.968Z,8.10
2019-05-30T10:48:23.757Z,9.50
2019-05-30T10:51:27.889Z,5.67
2019-05-30T10:54:31.621Z,5.43
2019-05-30T10:57:35.414Z,3.60
2019-05-30T11:00:48.994Z,6.07
2019-05-30T11:03:54.824Z,8.73
2019-05-30T11:07:23.795Z,5.57
2019-05-30T11:10:36.274Z,11.33
2019-05-30T11:13:40.656Z,5.57
2019-05-30T11:16:44.625Z,9.63
2019-05-30T11:19:49.982Z,7.77
2019-05-30T11:22:54.628Z,5.27
2019-05-30T11:25:58.895Z,6.37
2019-05-30T11:29:02.744Z,4.93
2019-05-30T11:32:06.443Z,6.17
2019-05-30T11:35:10.313Z,8.10
2019-05-30T11:38:14.014Z,5.73
2019-05-30T11:41:17.944Z,6.33
2019-05-30T11:44:21.669Z,8.27
2019-05-30T11:47:25.391Z,6.00
2019-05-30T11:50:29.783Z,4.83
2019-05-30T11:53:33.560Z,7.67
2019-05-30T11:56:37.241Z,4.23
2019-05-30T11:59:40.961Z,4.70
2019-05-30T12:02:45.144Z,5.07
2019-05-30T12:05:48.918Z,5.50
2019-05-30T12:08:52.824Z,4.73
2019-05-30T12:11:57.415Z,6.77
2019-05-30T12:15:01.650Z,4.30
2019-05-30T12:18:05.608Z,3.83
2019-05-30T12:21:09.325Z,6.83
2019-05-30T12:24:13.020Z,7.67
2019-05-30T12:27:16.720Z,3.87
2019-05-30T12:30:22.375Z,4.00
2019-05-30T12:33:26.083Z,4.47
2019-05-30T12:36:29.777Z,4.20
2019-05-30T12:39:33.607Z,10.07
2019-05-30T12:42:37.916Z,8.27
2019-05-30T12:45:41.993Z,7.27
2019-05-30T12:48:45.965Z,4.13
2019-05-30T12:51:49.680Z,6.87
2019-05-30T12:54:54.444Z,8.20
2019-05-30T12:57:58.628Z,8.20
2019-05-30T13:01:02.964Z,7.10
2019-05-30T13:04:07.367Z,6.30
2019-05-30T13:07:11.224Z,4.20
2019-05-30T13:10:17.077Z,8.70
2019-05-30T13:13:20.802Z,6.80
2019-05-30T13:16:24.537Z,6.27
2019-05-30T13:19:28.241Z,8.50
2019-05-30T13:22:31.999Z,7.23
2019-05-30T13:25:35.865Z,7.90
2019-05-30T13:28:39.551Z,7.37
2019-05-30T13:31:43.540Z,12.97
2019-05-30T13:34:47.263Z,8.20
2019-05-30T13:37:50.985Z,15.30
2019-05-30T13:40:54.681Z,13.00
2019-05-30T13:43:58.375Z,11.60
2019-05-30T13:47:02.548Z,8.97
2019-05-30T13:50:11.285Z,11.33
2019-05-30T13:53:12.717Z,15.90
2019-05-30T13:56:16.444Z,15.90
2019-05-30T13:59:20.151Z,13.97
2019-05-30T14:02:23.892Z,12.17
2019-05-30T14:05:27.664Z,11.47
2019-05-30T14:08:41.158Z,15.53
2019-05-30T14:11:37.344Z,11.00
2019-05-30T14:14:41.374Z,8.87
2019-05-30T14:17:45.159Z,11.10
2019-05-30T14:20:49.163Z,11.70
2019-05-30T14:23:52.872Z,10.70
2019-05-30T14:26:56.827Z,14.40
2019-05-30T14:30:00.870Z,13.13
2019-05-30T14:33:05.962Z,10.03
2019-05-30T14:36:11.384Z,17.23
2019-05-30T14:39:15.603Z,10.20
2019-05-30T14:42:19.328Z,10.23
2019-05-30T14:45:23.175Z,12.00
2019-05-30T14:48:27.256Z,9.33
2019-05-30T14:51:30.955Z,8.87
2019-05-30T14:54:34.655Z,11.60
2019-05-30T14:57:38.786Z,12.13
2019-05-30T15:03:46.597Z,10.23
2019-05-30T15:06:50.543Z,8.93
2019-05-30T15:09:54.272Z,13.27
2019-05-30T15:12:58.320Z,8.23
2019-05-30T15:16:02.110Z,8.47
2019-05-30T15:19:06.377Z,10.23
2019-05-30T15:22:14.681Z,10.67
2019-05-30T15:25:18.096Z,26.37
2019-05-30T15:28:22.222Z,12.30
2019-05-30T15:31:25.933Z,12.63
2019-05-30T15:34:30.275Z,9.77
2019-05-30T15:37:34.277Z,9.53
2019-05-30T15:40:38.001Z,11.50
2019-05-30T15:43:42.019Z,12.40
2019-05-30T15:46:46.039Z,12.37
2019-05-30T15:49:52.127Z,13.40
2019-05-30T15:52:55.545Z,10.57
2019-05-30T15:55:59.252Z,10.43
2019-05-30T15:59:03.233Z,10.13
2019-05-30T16:02:07.195Z,8.57
2019-05-30T16:05:12.594Z,16.03
2019-05-30T16:08:16.787Z,12.50
2019-05-30T16:11:21.249Z,10.63
2019-05-30T16:14:25.370Z,9.83
2019-05-30T16:17:29.169Z,11.47
2019-05-30T16:20:32.899Z,10.73
2019-05-30T16:23:36.750Z,9.77
2019-05-30T16:26:40.673Z,11.20
2019-05-30T16:29:44.770Z,17.97
2019-05-30T16:32:48.590Z,18.07
2019-05-30T16:35:52.373Z,22.27
2019-05-30T16:38:56.167Z,11.07
2019-05-30T16:41:59.987Z,9.93
2019-05-30T16:45:04.219Z,13.30
2019-05-30T16:48:08.052Z,8.93
2019-05-30T16:51:11.865Z,14.23
2019-05-30T16:54:17.185Z,10.30
2019-05-30T16:57:20.918Z,11.83
2019-05-30T17:00:25.159Z,9.63
2019-05-30T17:03:28.878Z,8.50
2019-05-30T17:06:32.580Z,10.73
2019-05-30T17:09:36.553Z,10.60
2019-05-30T17:12:40.272Z,10.23
2019-05-30T17:15:43.988Z,9.70
2019-05-30T17:18:47.980Z,9.97
2019-05-30T17:21:52.359Z,9.93
2019-05-30T17:24:56.070Z,12.53
2019-05-30T17:28:00.027Z,13.03
2019-05-30T17:31:04.087Z,9.90
2019-05-30T17:34:08.049Z,10.13
2019-05-30T17:37:12.099Z,11.43
2019-05-30T17:40:16.060Z,12.30
2019-05-30T17:43:20.979Z,11.17
2019-05-30T17:46:25.730Z,11.93
2019-05-30T17:49:30.077Z,11.07
2019-05-30T17:52:33.888Z,10.73
2019-05-30T17:55:37.619Z,11.80
2019-05-30T17:58:41.938Z,12.33
2019-05-30T18:01:45.669Z,10.50
2019-05-30T18:04:49.363Z,14.30
2019-05-30T18:07:53.682Z,11.47
2019-05-30T18:10:57.425Z,13.20
2019-05-30T18:14:01.115Z,12.33
2019-05-30T18:17:05.267Z,10.03
2019-05-30T18:20:10.416Z,11.93
2019-05-30T18:23:14.131Z,12.47
2019-05-30T18:26:17.845Z,11.60
2019-05-30T18:29:21.790Z,12.17
2019-05-30T18:32:25.942Z,16.83
2019-05-30T18:35:30.515Z,14.17
2019-05-30T18:38:34.994Z,9.80
2019-05-30T18:41:38.723Z,12.40
2019-05-30T18:44:42.431Z,13.77
2019-05-30T18:47:46.767Z,11.73
2019-05-30T18:50:50.475Z,13.03
2019-05-30T18:53:54.482Z,40.47
2019-05-30T18:56:58.224Z,17.27
2019-05-30T19:00:02.821Z,14.47
2019-05-30T19:03:07.261Z,12.63
2019-05-30T19:06:11.318Z,14.20
2019-05-30T19:09:15.063Z,12.07
2019-05-30T19:12:18.842Z,13.50
2019-05-30T19:15:22.960Z,12.57
2019-05-30T19:18:27.277Z,13.00
2019-05-30T19:21:32.187Z,14.97
2019-05-30T19:24:36.482Z,16.27
2019-05-30T19:27:40.786Z,15.90
2019-05-30T19:30:44.884Z,14.63
2019-05-30T19:33:48.928Z,11.93
2019-05-30T19:36:52.784Z,11.60
2019-05-30T19:39:56.502Z,15.80
2019-05-30T19:43:01.087Z,13.57
2019-05-30T19:46:04.942Z,12.90
2019-05-30T19:49:09.008Z,15.57
2019-05-30T19:52:12.964Z,12.07
2019-05-30T19:55:17.063Z,14.03
2019-05-30T19:58:20.772Z,15.20
2019-05-30T20:01:24.468Z,17.33
2019-05-30T20:04:28.189Z,13.50
2019-05-30T20:07:32.446Z,14.40
2019-05-30T20:10:37.232Z,14.50
2019-05-30T20:13:41.337Z,23.10
2019-05-30T20:16:45.223Z,17.80
2019-05-30T20:19:48.973Z,21.40
2019-05-30T20:22:53.045Z,17.67
2019-05-30T20:25:56.856Z,13.03
2019-05-30T20:29:00.909Z,10.60
2019-05-30T20:32:04.758Z,12.10
2019-05-30T20:35:09.074Z,11.80
2019-05-30T20:38:12.791Z,16.93
2019-05-30T20:41:16.488Z,14.00
2019-05-30T20:44:20.682Z,25.30
2019-05-30T20:47:24.475Z,14.43
2019-05-30T20:50:28.331Z,11.27
2019-05-30T20:53:32.067Z,12.03
2019-05-30T20:56:35.771Z,11.40
2019-05-30T20:59:40.650Z,12.87
2019-05-30T21:02:44.460Z,17.30
2019-05-30T21:05:48.752Z,21.87
2019-05-30T21:08:52.558Z,13.23
2019-05-30T21:11:56.961Z,14.10
2019-05-30T21:15:02.790Z,14.50
2019-05-30T21:18:07.309Z,15.83
2019-05-30T21:21:11.027Z,18.13
2019-05-30T21:24:14.743Z,14.57
2019-05-30T21:27:18.465Z,17.60
2019-05-30T21:30:22.551Z,13.63
2019-05-30T21:33:26.824Z,15.37
2019-05-30T21:36:30.839Z,14.93
2019-05-30T21:39:34.850Z,17.47
2019-05-30T21:42:55.330Z,16.63
2019-05-30T21:45:44.678Z,49.00
2019-05-30T21:48:49.067Z,19.90
2019-05-30T21:51:53.439Z,16.97
2019-05-30T21:54:57.162Z,18.83
2019-05-30T21:58:01.159Z,16.93
2019-05-30T22:01:25.571Z,14.30
2019-05-30T22:04:29.362Z,17.77
2019-05-30T22:07:33.078Z,18.13
2019-05-30T22:10:37.132Z,14.97
2019-05-30T22:13:41.504Z,15.00
2019-05-30T22:16:45.955Z,17.63
2019-05-30T22:19:50.058Z,19.17
2019-05-30T22:22:54.155Z,17.07
2019-05-30T22:25:58.166Z,17.67
2019-05-30T22:29:01.884Z,22.20
2019-05-30T22:32:05.624Z,18.93
2019-05-30T22:35:09.519Z,20.67
2019-05-30T22:38:13.249Z,19.97
2019-05-30T22:41:16.975Z,18.37
2019-05-30T22:44:20.705Z,17.60
2019-05-30T22:47:24.430Z,15.33
2019-05-30T22:50:28.229Z,15.90
2019-05-30T22:53:32.017Z,15.10
2019-05-30T22:56:36.046Z,17.63
2019-05-30T22:59:39.789Z,19.00
2019-05-30T23:02:43.600Z,19.90
2019-05-30T23:05:47.345Z,16.57
2019-05-30T23:08:52.603Z,18.17
2019-05-30T23:11:56.327Z,17.73
2019-05-30T23:15:00.041Z,15.93
2019-05-30T23:18:03.843Z,17.43
2019-05-30T23:21:07.864Z,19.33
2019-05-30T23:24:11.638Z,23.33
2019-05-30T23:27:16.200Z,20.40
2019-05-30T23:30:20.891Z,20.23
2019-05-30T23:33:24.613Z,17.63
2019-05-30T23:36:28.370Z,16.73
2019-05-30T23:39:32.093Z,19.50
2019-05-30T23:42:35.833Z,17.87
2019-05-30T23:45:39.579Z,16.73
2019-05-30T23:48:43.381Z,18.13
2019-05-30T23:51:47.094Z,17.43
2019-05-30T23:54:52.146Z,19.47
2019-05-30T23:57:56.615Z,17.63
